首页
METAR-TAF:

METAR-TAF

机场 :

Shell Mera, 厄瓜多尔

纬度: 01-30-19S, 经度: 078-03-46W, 海拔: 1056米

当前天气观测

该预报发布于2小时和48分钟前的23:00 UTC
风速8节,风向东转东南
温度 24°C
湿度 94%
气压 1014 hPa
能见度10公里或以上
散云层高于2300英尺
多云层高于10000英尺

METAR: SESM 242300Z 11008KT 9999 SCT023 BKN100 24/23 Q1014 RMK A2994

时间: 20:48 (01:48 UTC)


TAF: 丢失

超过4000个机场的气象观测和天气预报(METAR&TAF报告)。

可查询的气象台以黄色和红色小点在地图上表示。

将鼠标移到小点上方,可查看气象台名称。

然后点击查看天气观测和预报。

如需切换地图:点击带黑十字的绿色按钮放大地图;点击带横线的绿色按钮缩小地图;或者点击绿色箭头查看邻近地区的地图。


METAR-TAF: